Time;durP1;ratioP1;P1;durP2;ratioP2;P2;SDS_P1;SDS_P2;PMS_P1;PMS_P2;Temp;Humidity;BMP_temperature;BMP_pressure;BME280_temperature;BME280_humidity;BME280_pressure;Samples;Min_cycle;Max_cycle;Signal;HPM_P1;HPM_P2
2022/08/10 00:01:12;;;;;;;3.45;1.80;;;22.80;93.90;;;;;;5009247;28;20208;-67
2022/08/10 00:03:38;;;;;;;4.30;2.22;;;22.80;93.90;;;;;;5009093;28;20221;-67
2022/08/10 00:06:12;;;;;;;4.97;2.30;;;22.70;93.90;;;;;;5007094;28;20206;-67
2022/08/10 00:08:39;;;;;;;4.82;2.00;;;22.70;94.00;;;;;;5007726;28;20206;-68
2022/08/10 00:11:12;;;;;;;3.13;1.83;;;22.70;94.20;;;;;;5008538;28;20202;-68
2022/08/10 00:13:39;;;;;;;3.30;2.40;;;22.60;94.20;;;;;;5008837;28;20241;-68
2022/08/10 00:16:13;;;;;;;3.55;2.20;;;22.60;94.30;;;;;;5008744;28;20201;-68
2022/08/10 00:18:40;;;;;;;3.38;2.28;;;22.50;94.40;;;;;;5006011;28;20218;-67
2022/08/10 00:21:12;;;;;;;3.22;2.05;;;22.50;94.50;;;;;;4989497;28;20198;-68
2022/08/10 00:23:39;;;;;;;2.10;1.90;;;22.50;94.70;;;;;;4988789;28;20691;-68
2022/08/10 00:26:12;;;;;;;2.28;2.08;;;22.40;94.70;;;;;;4989094;28;20221;-68
2022/08/10 00:28:39;;;;;;;2.90;2.13;;;22.40;94.80;;;;;;4989470;28;20198;-68
2022/08/10 00:31:13;;;;;;;3.35;2.50;;;22.40;94.90;;;;;;4988584;28;20687;-68
2022/08/10 00:33:40;;;;;;;3.67;2.40;;;22.40;95.00;;;;;;5005458;28;20262;-68
2022/08/10 00:36:16;;;;;;;2.45;2.20;;;22.30;95.00;;;;;;5007986;28;20205;-68
2022/08/10 00:38:43;;;;;;;3.13;2.40;;;22.30;95.10;;;;;;5008077;28;20664;-68
2022/08/10 00:41:12;;;;;;;3.33;2.50;;;22.30;95.20;;;;;;5008047;28;20665;-68
2022/08/10 00:43:39;;;;;;;7.68;2.47;;;22.20;95.30;;;;;;5006896;28;20239;-68
2022/08/10 00:46:13;;;;;;;2.60;2.40;;;22.20;95.40;;;;;;5008500;28;20216;-69
2022/08/10 00:48:40;;;;;;;3.72;2.47;;;22.20;95.50;;;;;;5007982;28;20792;-68
2022/08/10 00:51:14;;;;;;;2.97;2.63;;;22.20;95.50;;;;;;5006955;28;20212;-68
2022/08/10 00:53:41;;;;;;;5.00;2.67;;;22.20;95.70;;;;;;5006581;28;20590;-69
2022/08/10 00:56:11;;;;;;;3.00;2.42;;;22.20;95.90;;;;;;5007841;28;20223;-68
2022/08/10 00:58:39;;;;;;;3.88;2.35;;;22.20;96.00;;;;;;5007961;28;20648;-69
2022/08/10 01:01:13;;;;;;;3.58;2.50;;;22.10;96.10;;;;;;5008107;28;20229;-68
2022/08/10 01:03:40;;;;;;;2.83;2.47;;;22.10;96.20;;;;;;4990265;28;20198;-68
2022/08/10 01:06:25;;;;;;;3.28;2.40;;;22.00;96.30;;;;;;4988617;28;20213;-68
2022/08/10 01:09:01;;;;;;;3.42;2.40;;;22.00;96.30;;;;;;4988133;28;20571;-68
2022/08/10 01:11:35;;;;;;;4.72;2.58;;;22.00;96.30;;;;;;4987441;28;20209;-68
2022/08/10 01:14:09;;;;;;;3.00;2.38;;;21.90;96.30;;;;;;5007513;28;20779;-68
2022/08/10 01:16:45;;;;;;;3.20;2.70;;;21.90;96.40;;;;;;4988993;28;20703;-67
2022/08/10 01:19:38;;;;;;;3.00;2.70;;;21.90;96.50;;;;;;5007933;28;20240;-67
2022/08/10 01:22:20;;;;;;;4.82;2.42;;;21.80;96.50;;;;;;5003780;28;20634;-67
2022/08/10 01:25:29;;;;;;;2.88;2.60;;;21.80;96.60;;;;;;4987935;28;20198;-67
2022/08/10 01:28:12;;;;;;;2.58;2.30;;;21.80;96.60;;;;;;4946570;29;20208;-67
2022/08/10 01:30:43;;;;;;;2.92;2.72;;;21.80;96.70;;;;;;4986069;28;20304;-67
2022/08/10 01:33:12;;;;;;;4.18;2.80;;;21.80;96.80;;;;;;4988577;28;20645;-67
2022/08/10 01:35:46;;;;;;;5.63;2.55;;;21.70;96.90;;;;;;4987765;28;20717;-67
2022/08/10 01:38:18;;;;;;;3.28;2.60;;;21.70;96.90;;;;;;4988187;28;20564;-67
2022/08/10 01:40:49;;;;;;;2.78;2.58;;;21.60;97.00;;;;;;4988191;28;20645;-67
2022/08/10 01:43:19;;;;;;;5.45;3.03;;;21.60;97.00;;;;;;5001104;28;20202;-67
2022/08/10 01:45:53;;;;;;;3.22;2.85;;;21.60;97.10;;;;;;5007009;28;20213;-67
2022/08/10 01:48:30;;;;;;;4.97;3.10;;;21.60;97.10;;;;;;5007823;28;20551;-67
2022/08/10 01:51:16;;;;;;;3.50;3.05;;;21.50;97.20;;;;;;5007189;28;20867;-67
2022/08/10 01:53:50;;;;;;;4.70;2.95;;;21.50;97.20;;;;;;5006553;28;20193;-68
2022/08/10 01:56:18;;;;;;;2.95;2.75;;;21.50;97.20;;;;;;5007388;28;20205;-68
2022/08/10 01:58:48;;;;;;;4.18;2.70;;;21.50;97.30;;;;;;5007393;28;20214;-68
2022/08/10 02:01:20;;;;;;;4.68;2.92;;;21.50;97.40;;;;;;5007087;28;20570;-69
2022/08/10 02:03:50;;;;;;;4.77;3.07;;;21.40;97.50;;;;;;5005921;28;20209;-69
2022/08/10 02:06:18;;;;;;;3.38;3.00;;;21.40;97.60;;;;;;5007245;28;20668;-68
2022/08/10 02:08:48;;;;;;;7.07;3.38;;;21.30;97.80;;;;;;5007535;28;20212;-68
2022/08/10 02:11:16;;;;;;;5.57;3.55;;;21.30;97.80;;;;;;5005738;28;20202;-68
2022/08/10 02:13:44;;;;;;;3.13;2.80;;;21.30;98.00;;;;;;5007411;28;20205;-68
2022/08/10 02:16:16;;;;;;;4.80;3.00;;;21.30;98.10;;;;;;5007288;28;20212;-67
2022/08/10 02:18:45;;;;;;;3.58;3.03;;;21.30;98.20;;;;;;5006876;28;20720;-68
2022/08/10 02:21:12;;;;;;;4.57;2.78;;;21.30;98.20;;;;;;5005253;28;20202;-68
2022/08/10 02:23:40;;;;;;;3.78;2.80;;;21.30;98.40;;;;;;4991576;28;20210;-68
2022/08/10 02:26:15;;;;;;;3.35;2.90;;;21.20;98.40;;;;;;4991416;28;20273;-73
2022/08/10 02:28:42;;;;;;;3.63;2.95;;;21.20;98.50;;;;;;4991236;28;20305;-67
2022/08/10 02:31:16;;;;;;;3.00;2.78;;;21.20;98.60;;;;;;4991674;28;20612;-67
2022/08/10 02:33:48;;;;;;;5.20;2.83;;;21.20;98.70;;;;;;4990124;28;20293;-67
2022/08/10 02:36:15;;;;;;;3.57;2.90;;;21.20;98.70;;;;;;4989026;28;20199;-67
2022/08/10 02:38:46;;;;;;;3.40;2.80;;;21.20;99.10;;;;;;4989175;28;20214;-67
2022/08/10 02:41:22;;;;;;;2.70;2.50;;;21.10;98.80;;;;;;4990521;28;20200;-67
2022/08/10 02:43:53;;;;;;;3.58;2.83;;;21.10;98.80;;;;;;5008893;28;20297;-67
2022/08/10 02:46:26;;;;;;;3.95;2.90;;;21.00;99.00;;;;;;4988646;28;20567;-67
2022/08/10 02:49:00;;;;;;;3.13;2.90;;;21.00;99.10;;;;;;4998923;28;20213;-67
2022/08/10 02:51:31;;;;;;;3.40;2.90;;;20.90;99.20;;;;;;5008525;28;20294;-67
2022/08/10 02:54:10;;;;;;;4.97;3.28;;;20.90;99.40;;;;;;5008330;28;20204;-67
2022/08/10 02:56:41;;;;;;;3.10;2.90;;;20.80;99.60;;;;;;5007957;28;20712;-67
2022/08/10 02:59:11;;;;;;;8.10;2.88;;;20.80;99.80;;;;;;5007987;28;20252;-67
2022/08/10 03:01:43;;;;;;;5.50;2.83;;;20.70;99.90;;;;;;5001703;28;20210;-68
2022/08/10 03:04:16;;;;;;;4.60;3.05;;;20.70;99.90;;;;;;4988643;28;20627;-67
2022/08/10 03:06:47;;;;;;;5.18;3.53;;;20.70;99.90;;;;;;4988843;28;20202;-70
2022/08/10 03:09:17;;;;;;;3.40;3.10;;;20.70;99.90;;;;;;5009605;28;20189;-67
2022/08/10 03:11:45;;;;;;;3.80;3.22;;;20.70;99.90;;;;;;5009421;28;20208;-68
2022/08/10 03:14:13;;;;;;;4.13;3.30;;;20.60;99.90;;;;;;5009847;28;20210;-68
2022/08/10 03:16:42;;;;;;;3.15;2.90;;;20.60;99.90;;;;;;5009487;28;20209;-68
2022/08/10 03:19:11;;;;;;;3.75;2.95;;;20.60;99.90;;;;;;5009599;28;20237;-68
2022/08/10 03:21:38;;;;;;;6.78;3.05;;;20.60;99.90;;;;;;5009543;28;20615;-68
2022/08/10 03:24:07;;;;;;;5.55;3.20;;;20.50;99.90;;;;;;5009785;28;20210;-68
2022/08/10 03:26:36;;;;;;;7.68;3.22;;;20.40;99.90;;;;;;5008863;28;20626;-67
2022/08/10 03:29:03;;;;;;;2.97;2.43;;;20.40;99.90;;;;;;5009763;28;20209;-67
2022/08/10 03:31:32;;;;;;;5.13;3.27;;;20.40;99.90;;;;;;5009325;28;20304;-68
2022/08/10 03:34:01;;;;;;;7.33;3.50;;;20.40;99.90;;;;;;5008824;28;20210;-67
2022/08/10 03:36:30;;;;;;;6.37;3.13;;;20.40;99.90;;;;;;5009105;28;20754;-68
2022/08/10 03:38:57;;;;;;;3.00;2.80;;;20.30;99.90;;;;;;5008951;28;20691;-68
2022/08/10 03:41:30;;;;;;;4.30;3.37;;;20.30;99.90;;;;;;5009074;28;20216;-67
2022/08/10 03:43:58;;;;;;;3.80;3.50;;;20.30;99.90;;;;;;5009774;28;20194;-68
2022/08/10 03:46:26;;;;;;;3.40;3.20;;;20.30;99.90;;;;;;5009288;28;20209;-68
2022/08/10 03:48:56;;;;;;;6.23;3.27;;;20.30;99.90;;;;;;5009119;28;20232;-68
2022/08/10 03:51:25;;;;;;;3.07;2.87;;;20.30;99.90;;;;;;5009319;28;20201;-68
2022/08/10 03:53:54;;;;;;;4.90;3.43;;;20.30;99.90;;;;;;5009209;28;20209;-68
2022/08/10 03:56:21;;;;;;;4.90;3.23;;;20.30;99.90;;;;;;5008833;28;20235;-68
2022/08/10 03:58:48;;;;;;;4.83;3.60;;;20.20;99.90;;;;;;5008878;28;20209;-68
2022/08/10 04:01:15;;;;;;;7.82;3.53;;;20.20;99.90;;;;;;5008696;28;20241;-68
2022/08/10 04:03:42;;;;;;;4.73;3.70;;;20.20;99.90;;;;;;5009011;28;20586;-68
2022/08/10 04:06:18;;;;;;;5.97;3.75;;;20.20;99.90;;;;;;5008950;28;20213;-68
2022/08/10 04:08:45;;;;;;;4.63;3.13;;;20.20;99.90;;;;;;5008568;28;20309;-68
2022/08/10 04:11:16;;;;;;;4.00;3.70;;;20.20;99.90;;;;;;5008696;28;20549;-68
2022/08/10 04:13:43;;;;;;;7.27;3.63;;;20.20;99.90;;;;;;5008857;28;20208;-68
2022/08/10 04:16:16;;;;;;;6.37;3.20;;;20.20;99.90;;;;;;5008557;28;20236;-68
2022/08/10 04:18:42;;;;;;;7.40;3.93;;;20.20;99.90;;;;;;5008550;28;20237;-68
2022/08/10 04:21:18;;;;;;;5.20;4.10;;;20.20;99.90;;;;;;5008716;28;20221;-68
2022/08/10 04:23:49;;;;;;;6.63;4.57;;;20.20;99.90;;;;;;5008620;28;20211;-68
2022/08/10 04:26:18;;;;;;;6.40;4.40;;;20.20;99.90;;;;;;5008446;28;20194;-68
2022/08/10 04:28:45;;;;;;;20.63;6.13;;;20.20;99.90;;;;;;5008466;28;20213;-67
2022/08/10 04:31:14;;;;;;;13.43;4.60;;;20.20;99.90;;;;;;5008393;28;20643;-68
2022/08/10 04:33:45;;;;;;;7.77;5.03;;;20.20;99.90;;;;;;5008168;28;20736;-68
2022/08/10 04:36:20;;;;;;;8.47;4.50;;;20.20;99.90;;;;;;5008405;28;20692;-68
2022/08/10 04:38:49;;;;;;;4.40;4.00;;;20.20;99.90;;;;;;5008290;28;20300;-68
2022/08/10 04:41:18;;;;;;;7.07;4.07;;;20.00;99.90;;;;;;5008307;28;20221;-68
2022/08/10 04:43:45;;;;;;;7.33;3.73;;;20.00;99.90;;;;;;5008347;28;20366;-67
2022/08/10 04:46:18;;;;;;;4.00;3.50;;;19.90;99.90;;;;;;5007853;28;20216;-68
2022/08/10 04:48:45;;;;;;;5.47;3.90;;;19.90;99.90;;;;;;5008197;28;20217;-68
2022/08/10 04:51:16;;;;;;;5.93;4.10;;;19.90;99.90;;;;;;5008332;28;20209;-68
2022/08/10 04:53:43;;;;;;;4.20;3.47;;;19.90;99.90;;;;;;5008034;28;20213;-67
2022/08/10 04:56:17;;;;;;;4.10;3.80;;;19.90;99.90;;;;;;5007630;28;20245;-68
2022/08/10 04:58:44;;;;;;;4.60;4.00;;;19.90;99.90;;;;;;5007938;28;20219;-68
2022/08/10 05:01:14;;;;;;;7.77;3.70;;;19.90;99.90;;;;;;5007799;28;20217;-68
2022/08/10 05:03:41;;;;;;;4.47;4.03;;;19.90;99.90;;;;;;5008065;28;20276;-68
2022/08/10 05:06:16;;;;;;;4.73;4.03;;;20.00;99.90;;;;;;5007279;28;20777;-68
2022/08/10 05:08:43;;;;;;;5.07;3.97;;;20.00;99.90;;;;;;4989645;28;20213;-68
2022/08/10 05:11:14;;;;;;;8.77;4.50;;;20.10;99.90;;;;;;4988258;28;20301;-67
2022/08/10 05:13:42;;;;;;;5.77;4.20;;;20.10;99.90;;;;;;4988391;28;20205;-67
2022/08/10 05:16:15;;;;;;;9.93;4.43;;;20.10;99.90;;;;;;4988228;28;20234;-68
2022/08/10 05:18:42;;;;;;;8.60;4.37;;;20.00;99.90;;;;;;4996081;28;20233;-67
2022/08/10 05:21:15;;;;;;;7.07;4.50;;;19.90;99.90;;;;;;5007863;28;20205;-68
2022/08/10 05:23:41;;;;;;;7.83;4.70;;;19.90;99.90;;;;;;5007559;28;20224;-68
2022/08/10 05:26:14;;;;;;;6.73;4.20;;;20.00;99.90;;;;;;5007187;28;20213;-68
2022/08/10 05:28:43;;;;;;;6.23;4.50;;;20.00;99.90;;;;;;5007378;28;20735;-68
2022/08/10 05:31:12;;;;;;;5.67;4.43;;;20.00;99.90;;;;;;5007412;28;20751;-68
2022/08/10 05:33:39;;;;;;;9.80;5.10;;;20.10;99.90;;;;;;5007639;28;20210;-68
2022/08/10 05:36:12;;;;;;;9.13;4.70;;;20.10;99.90;;;;;;5007364;28;20296;-67
2022/08/10 05:38:40;;;;;;;8.87;4.57;;;20.20;99.90;;;;;;5007251;28;20706;-68
2022/08/10 05:41:17;;;;;;;6.63;4.27;;;20.10;99.90;;;;;;5007596;28;20582;-67
2022/08/10 05:43:45;;;;;;;6.90;4.10;;;20.20;99.90;;;;;;5007693;28;20211;-67
2022/08/10 05:46:15;;;;;;;6.40;3.83;;;20.10;99.90;;;;;;5007648;28;20207;-68
2022/08/10 05:48:42;;;;;;;7.73;4.17;;;20.10;99.90;;;;;;5007573;28;20288;-68
2022/08/10 05:51:16;;;;;;;6.33;4.00;;;20.10;99.90;;;;;;5007635;28;20212;-67
2022/08/10 05:53:43;;;;;;;5.87;4.10;;;20.20;99.90;;;;;;5007541;28;20209;-68
2022/08/10 05:56:16;;;;;;;17.53;5.30;;;20.20;99.90;;;;;;5007340;28;20229;-68
2022/08/10 05:58:44;;;;;;;21.17;6.00;;;20.30;99.90;;;;;;5011187;28;20205;-68
2022/08/10 06:01:16;;;;;;;14.13;5.47;;;20.30;99.90;;;;;;5011479;28;20198;-68
2022/08/10 06:03:48;;;;;;;10.60;4.90;;;20.30;99.90;;;;;;5011012;28;20584;-68
2022/08/10 06:06:17;;;;;;;9.40;5.00;;;20.30;99.90;;;;;;5011113;28;20661;-68
2022/08/10 06:08:47;;;;;;;7.47;4.53;;;20.40;99.90;;;;;;5011230;28;20197;-67
2022/08/10 06:11:17;;;;;;;7.20;4.30;;;20.40;99.90;;;;;;5010623;28;20879;-68
2022/08/10 06:16:29;;;;;;;7.38;4.40;;;20.50;99.90;;;;;;4987863;28;20240;-68
2022/08/10 06:18:57;;;;;;;5.43;3.83;;;20.60;99.90;;;;;;5010733;28;20230;-68
2022/08/10 06:21:25;;;;;;;9.70;4.17;;;20.70;99.90;;;;;;5011128;28;20205;-67
2022/08/10 06:23:52;;;;;;;5.00;4.00;;;20.70;99.90;;;;;;5010665;28;20766;-69
2022/08/10 06:26:19;;;;;;;7.23;4.23;;;20.70;99.90;;;;;;5010606;28;20300;-69
2022/08/10 06:28:52;;;;;;;12.13;5.10;;;20.80;99.90;;;;;;5010903;28;20213;-68
2022/08/10 06:31:20;;;;;;;11.32;4.43;;;20.90;99.90;;;;;;5010858;28;20724;-68
2022/08/10 06:33:48;;;;;;;10.43;3.80;;;21.00;99.90;;;;;;5010934;28;20201;-68
2022/08/10 06:36:16;;;;;;;5.65;3.50;;;21.00;99.90;;;;;;5010941;28;20432;-68
2022/08/10 06:38:45;;;;;;;6.18;3.80;;;21.10;99.90;;;;;;5010802;28;20202;-68
2022/08/10 06:41:25;;;;;;;6.13;3.65;;;21.10;99.90;;;;;;5010418;28;20210;-68
2022/08/10 06:43:59;;;;;;;4.93;3.35;;;21.10;99.90;;;;;;5010648;28;20256;-68
2022/08/10 06:46:28;;;;;;;7.50;3.50;;;21.20;99.90;;;;;;5010178;28;20655;-67
2022/08/10 06:48:59;;;;;;;6.05;3.40;;;21.20;99.90;;;;;;5010382;28;20245;-68
2022/08/10 06:51:30;;;;;;;3.72;3.42;;;21.20;99.90;;;;;;5010285;28;20659;-68
2022/08/10 06:54:01;;;;;;;8.10;3.30;;;21.20;99.90;;;;;;5010550;28;20191;-68
2022/08/10 06:56:30;;;;;;;3.53;3.20;;;21.30;99.90;;;;;;5010052;28;20229;-68
2022/08/10 06:59:05;;;;;;;4.85;3.38;;;21.30;99.90;;;;;;5010220;28;20351;-68
2022/08/10 07:01:35;;;;;;;4.28;3.40;;;21.30;99.90;;;;;;5010114;28;20208;-68
2022/08/10 07:04:06;;;;;;;6.13;3.30;;;21.40;99.90;;;;;;5010112;28;20213;-68
2022/08/10 07:06:34;;;;;;;7.57;3.90;;;21.40;99.90;;;;;;5010073;28;20221;-68
2022/08/10 07:09:03;;;;;;;4.15;3.22;;;21.50;99.90;;;;;;5008775;28;20236;-67
2022/08/10 07:11:32;;;;;;;4.32;3.95;;;21.50;99.90;;;;;;5009798;28;20304;-67
2022/08/10 07:14:03;;;;;;;3.28;2.97;;;21.60;99.90;;;;;;5010003;28;20220;-67
2022/08/10 07:16:32;;;;;;;4.07;3.10;;;21.60;99.90;;;;;;5009571;28;21012;-67
2022/08/10 07:19:01;;;;;;;4.13;2.97;;;21.70;99.90;;;;;;5009841;28;20244;-67
2022/08/10 07:21:29;;;;;;;4.45;2.95;;;21.80;99.90;;;;;;5010004;28;20213;-67
2022/08/10 07:23:59;;;;;;;6.78;3.05;;;21.80;99.90;;;;;;5009963;28;20244;-67
2022/08/10 07:26:27;;;;;;;6.32;3.10;;;21.90;99.90;;;;;;5009486;28;20217;-67
2022/08/10 07:28:55;;;;;;;8.93;3.22;;;21.90;99.90;;;;;;5009646;28;20210;-67
2022/08/10 07:31:25;;;;;;;6.90;3.53;;;22.00;99.90;;;;;;5009654;28;20220;-67
2022/08/10 07:33:54;;;;;;;8.13;3.35;;;22.00;99.90;;;;;;5009428;28;20220;-67
2022/08/10 07:36:22;;;;;;;4.35;3.08;;;22.10;99.90;;;;;;5009375;28;20295;-67
2022/08/10 07:38:51;;;;;;;8.00;3.10;;;22.10;99.90;;;;;;5009312;28;20240;-68
2022/08/10 07:41:21;;;;;;;9.98;3.25;;;22.20;99.90;;;;;;5008880;28;20212;-67
2022/08/10 07:43:50;;;;;;;9.23;3.47;;;22.30;99.90;;;;;;5009128;28;20232;-67
2022/08/10 07:46:19;;;;;;;4.70;3.05;;;22.30;99.90;;;;;;5009414;28;20214;-67
2022/08/10 07:48:59;;;;;;;4.63;2.67;;;22.40;99.90;;;;;;5009065;28;20611;-67
2022/08/10 07:51:26;;;;;;;6.78;3.05;;;22.40;99.90;;;;;;5009051;28;20194;-67
2022/08/10 07:53:56;;;;;;;10.13;3.50;;;22.50;99.90;;;;;;5008909;28;20210;-67
2022/08/10 07:56:25;;;;;;;5.80;3.22;;;22.50;99.90;;;;;;5008762;28;20225;-67
2022/08/10 07:58:56;;;;;;;9.75;3.45;;;22.60;99.90;;;;;;5008775;28;20292;-67
2022/08/10 08:01:29;;;;;;;13.20;3.47;;;22.60;99.90;;;;;;5009021;28;20285;-67
2022/08/10 08:04:00;;;;;;;75.20;9.35;;;22.70;99.90;;;;;;5009065;28;20742;-67
2022/08/10 08:06:28;;;;;;;13.80;4.15;;;22.70;99.90;;;;;;5008623;28;20198;-67
2022/08/10 08:08:57;;;;;;;9.05;2.83;;;22.70;99.60;;;;;;5008669;28;20209;-67
2022/08/10 08:11:24;;;;;;;4.20;2.70;;;22.80;99.20;;;;;;5008735;28;20562;-67
2022/08/10 08:13:53;;;;;;;6.57;2.65;;;22.80;98.70;;;;;;5008922;28;20220;-67
2022/08/10 08:16:21;;;;;;;3.97;2.60;;;22.90;98.30;;;;;;5008506;28;20233;-67
2022/08/10 08:18:51;;;;;;;3.55;2.45;;;22.90;98.50;;;;;;5008317;28;20328;-67
2022/08/10 08:21:19;;;;;;;9.32;2.45;;;23.00;98.00;;;;;;5008234;28;20292;-67
2022/08/10 08:23:47;;;;;;;5.43;3.03;;;23.00;97.60;;;;;;5008686;28;20209;-67
2022/08/10 08:26:14;;;;;;;4.22;2.72;;;23.10;97.60;;;;;;5008195;28;20206;-67
2022/08/10 08:28:44;;;;;;;6.95;2.50;;;23.10;97.50;;;;;;5008403;28;20219;-67
2022/08/10 08:31:12;;;;;;;8.32;3.45;;;23.20;97.40;;;;;;5008156;28;20734;-67
2022/08/10 08:33:40;;;;;;;3.70;2.67;;;23.20;97.20;;;;;;5008685;28;20209;-67
2022/08/10 08:36:16;;;;;;;2.22;2.08;;;23.30;97.20;;;;;;5008595;28;20260;-67
2022/08/10 08:38:46;;;;;;;6.38;2.58;;;23.30;97.00;;;;;;5008711;28;20209;-68
2022/08/10 08:41:28;;;;;;;9.05;2.78;;;23.40;96.90;;;;;;5008272;28;20220;-67
2022/08/10 08:44:05;;;;;;;6.50;2.25;;;23.50;96.60;;;;;;5008427;28;20189;-67
2022/08/10 08:46:47;;;;;;;2.90;2.00;;;23.50;95.30;;;;;;5007898;28;20679;-67
2022/08/10 08:49:34;;;;;;;2.40;2.15;;;23.50;95.40;;;;;;5008197;28;20309;-67
2022/08/10 08:52:12;;;;;;;3.28;2.30;;;23.60;95.80;;;;;;5008221;28;20197;-67
2022/08/10 08:54:52;;;;;;;4.07;2.40;;;23.70;95.60;;;;;;5008011;28;20203;-67
2022/08/10 08:57:26;;;;;;;8.88;2.60;;;23.80;95.60;;;;;;5007693;28;20232;-67
2022/08/10 09:00:05;;;;;;;6.53;2.42;;;23.80;95.10;;;;;;5007801;28;20241;-67
2022/08/10 09:02:47;;;;;;;11.18;2.65;;;23.90;94.50;;;;;;5007963;28;20216;-68
2022/08/10 09:05:33;;;;;;;5.97;2.08;;;24.00;94.50;;;;;;5008093;28;20280;-67
2022/08/10 09:08:27;;;;;;;8.43;2.70;;;24.00;94.20;;;;;;5007989;28;20197;-67
2022/08/10 09:11:00;;;;;;;9.05;2.60;;;24.10;93.90;;;;;;5007428;28;20197;-68
2022/08/10 09:13:34;;;;;;;5.38;2.47;;;24.20;94.20;;;;;;5007840;28;20190;-67
2022/08/10 09:16:20;;;;;;;2.05;1.88;;;24.30;94.20;;;;;;5007852;28;20196;-68
2022/08/10 09:18:52;;;;;;;7.68;2.53;;;24.40;93.60;;;;;;5007541;28;20239;-67
2022/08/10 09:21:26;;;;;;;2.92;2.00;;;24.40;93.30;;;;;;5007742;28;20201;-67
2022/08/10 09:24:02;;;;;;;5.65;2.40;;;24.40;92.60;;;;;;5007774;28;20205;-68
2022/08/10 09:26:38;;;;;;;3.22;1.80;;;24.50;92.70;;;;;;5007245;28;20780;-67
2022/08/10 09:29:07;;;;;;;3.05;2.13;;;24.50;92.10;;;;;;5007959;28;20214;-67
2022/08/10 09:31:43;;;;;;;6.40;2.13;;;24.60;92.40;;;;;;5008150;28;20296;-68
2022/08/10 09:34:17;;;;;;;5.30;1.90;;;24.70;91.60;;;;;;5011974;28;20200;-67
2022/08/10 09:37:01;;;;;;;2.05;1.85;;;24.70;90.80;;;;;;5011608;28;20217;-67
2022/08/10 09:39:41;;;;;;;3.30;1.80;;;24.80;91.10;;;;;;5011500;28;20197;-67
2022/08/10 09:42:15;;;;;;;4.00;1.83;;;24.80;91.20;;;;;;5011553;28;20215;-67
2022/08/10 09:44:54;;;;;;;2.65;1.65;;;24.80;90.80;;;;;;5011761;28;20227;-67
2022/08/10 09:47:34;;;;;;;2.50;1.80;;;24.90;89.10;;;;;;5011369;28;20530;-67
2022/08/10 09:50:08;;;;;;;2.95;1.60;;;24.90;89.40;;;;;;5011736;28;20209;-67
2022/08/10 09:52:48;;;;;;;5.75;2.00;;;25.00;88.50;;;;;;5011232;28;20572;-67
2022/08/10 09:55:23;;;;;;;5.95;1.80;;;25.10;87.50;;;;;;5011444;28;20193;-67
2022/08/10 09:58:08;;;;;;;2.92;1.65;;;25.20;88.50;;;;;;5011137;28;20223;-67
2022/08/10 10:00:40;;;;;;;1.58;1.48;;;25.20;87.40;;;;;;5010840;28;20704;-67
2022/08/10 10:03:14;;;;;;;2.33;1.55;;;25.20;86.00;;;;;;5011334;28;20200;-67
2022/08/10 10:06:03;;;;;;;2.60;1.65;;;25.30;86.90;;;;;;5011324;28;20227;-68
2022/08/10 10:08:37;;;;;;;2.00;1.90;;;25.40;86.30;;;;;;5011129;28;20649;-67
2022/08/10 10:11:11;;;;;;;2.35;1.80;;;25.50;86.60;;;;;;5011001;28;20198;-67
2022/08/10 10:13:46;;;;;;;2.17;1.77;;;25.60;87.60;;;;;;5010782;28;20649;-67
2022/08/10 10:16:25;;;;;;;2.90;1.80;;;25.60;86.00;;;;;;5011152;28;20200;-67
2022/08/10 10:19:03;;;;;;;36.10;8.15;;;25.70;86.70;;;;;;5010722;28;20241;-67
2022/08/10 10:21:38;;;;;;;1.88;1.52;;;25.80;85.30;;;;;;5010882;28;20209;-67
2022/08/10 10:24:16;;;;;;;1.83;1.50;;;25.90;82.50;;;;;;5010984;28;20201;-67
2022/08/10 10:26:48;;;;;;;3.08;1.55;;;26.00;81.70;;;;;;5010625;28;20217;-67
2022/08/10 10:29:30;;;;;;;2.00;1.75;;;26.00;81.80;;;;;;5011125;28;20193;-67
2022/08/10 10:32:03;;;;;;;1.77;1.38;;;26.10;83.30;;;;;;5010748;28;20212;-67
2022/08/10 10:34:35;;;;;;;1.23;1.15;;;26.20;79.70;;;;;;5010837;28;20198;-68
2022/08/10 10:37:05;;;;;;;7.07;1.65;;;26.20;79.50;;;;;;5010842;28;20225;-67
2022/08/10 10:39:34;;;;;;;1.48;1.38;;;26.30;80.50;;;;;;5010592;28;20206;-67
2022/08/10 10:42:11;;;;;;;1.60;1.50;;;26.50;81.30;;;;;;5010403;28;20216;-68
2022/08/10 10:44:52;;;;;;;3.65;1.60;;;26.60;80.70;;;;;;5010524;28;20547;-68
2022/08/10 10:47:37;;;;;;;2.20;1.50;;;26.60;81.50;;;;;;5010480;28;20193;-67
2022/08/10 10:50:11;;;;;;;4.55;1.50;;;26.70;81.10;;;;;;5010439;28;20292;-68
2022/08/10 10:52:49;;;;;;;1.40;1.30;;;26.80;79.70;;;;;;5010341;28;20322;-68
2022/08/10 10:55:23;;;;;;;1.98;1.20;;;27.00;80.00;;;;;;5010247;28;20285;-68
2022/08/10 10:57:58;;;;;;;3.92;1.40;;;27.20;79.20;;;;;;5009949;28;21071;-68
2022/08/10 11:00:34;;;;;;;3.30;1.27;;;27.20;78.00;;;;;;5009633;28;20611;-68
2022/08/10 11:03:26;;;;;;;30.33;3.92;;;27.30;78.30;;;;;;5010273;28;20221;-67
2022/08/10 11:06:03;;;;;;;2.55;1.30;;;27.30;77.60;;;;;;5010128;28;20548;-68
2022/08/10 11:08:35;;;;;;;6.07;1.63;;;27.50;77.30;;;;;;5010077;28;20204;-68
2022/08/10 11:11:24;;;;;;;3.53;1.50;;;27.70;78.10;;;;;;5009507;28;20677;-68
2022/08/10 11:14:01;;;;;;;1.50;1.40;;;27.70;76.10;;;;;;5009746;28;20217;-67
2022/08/10 11:16:37;;;;;;;4.50;1.42;;;27.70;75.40;;;;;;5010047;28;20561;-68
2022/08/10 11:19:15;;;;;;;3.47;1.40;;;27.70;75.30;;;;;;5009492;28;20237;-68
2022/08/10 11:21:57;;;;;;;2.25;1.65;;;27.80;75.60;;;;;;5009721;28;20193;-68
2022/08/10 11:24:32;;;;;;;1.35;1.25;;;28.00;75.80;;;;;;5009823;28;20194;-68
2022/08/10 11:27:08;;;;;;;2.70;1.58;;;28.10;75.10;;;;;;5009357;28;20197;-68
2022/08/10 11:29:41;;;;;;;2.53;1.50;;;28.20;74.90;;;;;;5009405;28;20683;-68
2022/08/10 11:32:15;;;;;;;22.05;2.85;;;28.30;74.50;;;;;;5009363;28;20194;-68
2022/08/10 11:34:47;;;;;;;3.33;1.42;;;28.40;73.70;;;;;;5009311;28;20201;-68
2022/08/10 11:37:20;;;;;;;1.17;1.17;;;28.40;73.30;;;;;;5009283;28;20309;-68
2022/08/10 11:39:54;;;;;;;1.55;1.23;;;28.40;71.10;;;;;;5009385;28;20196;-68
2022/08/10 11:42:30;;;;;;;1.85;1.20;;;28.50;71.60;;;;;;5009060;28;20209;-68
2022/08/10 11:45:03;;;;;;;2.80;1.48;;;28.50;71.20;;;;;;5009413;28;20357;-67
2022/08/10 11:47:39;;;;;;;1.25;1.25;;;28.60;71.10;;;;;;5009065;28;20299;-68
2022/08/10 11:50:12;;;;;;;2.13;1.40;;;28.70;70.70;;;;;;5008976;28;20205;-68
2022/08/10 11:52:48;;;;;;;3.47;1.38;;;28.80;71.30;;;;;;5008969;28;20198;-68
2022/08/10 11:55:19;;;;;;;1.23;1.17;;;28.90;71.60;;;;;;5008208;28;20280;-68
2022/08/10 11:57:48;;;;;;;1.95;1.10;;;29.10;69.70;;;;;;5008666;28;20696;-68
2022/08/10 12:00:15;;;;;;;2.53;1.60;;;29.20;69.80;;;;;;5008833;28;20334;-68
2022/08/10 12:02:46;;;;;;;2.42;1.50;;;29.30;69.40;;;;;;5008697;28;20657;-68
2022/08/10 12:05:18;;;;;;;3.25;1.42;;;29.30;69.00;;;;;;5009114;28;20200;-68
2022/08/10 12:07:49;;;;;;;1.15;1.10;;;29.40;68.50;;;;;;5008913;28;20201;-68
2022/08/10 12:10:16;;;;;;;4.00;1.58;;;29.50;68.50;;;;;;5008813;28;20507;-68
2022/08/10 12:12:50;;;;;;;2.38;1.35;;;29.60;69.20;;;;;;5009021;28;20249;-68
2022/08/10 12:15:23;;;;;;;1.50;1.25;;;29.70;67.60;;;;;;5009035;28;20196;-68
2022/08/10 12:17:55;;;;;;;1.52;1.05;;;29.80;66.60;;;;;;5008579;28;20217;-68
2022/08/10 12:20:28;;;;;;;1.15;1.15;;;29.80;67.00;;;;;;5008972;28;20566;-68
2022/08/10 12:22:59;;;;;;;1.77;1.15;;;29.90;67.30;;;;;;5008836;28;20205;-68
2022/08/10 12:25:34;;;;;;;1.20;1.10;;;30.00;66.60;;;;;;5008367;28;20198;-68
2022/08/10 12:28:09;;;;;;;1.60;1.10;;;30.00;66.40;;;;;;5008504;28;20197;-68
2022/08/10 12:30:42;;;;;;;3.85;1.40;;;30.10;66.00;;;;;;5008504;28;20204;-68
2022/08/10 12:33:19;;;;;;;2.80;1.45;;;30.10;65.60;;;;;;5008599;28;20194;-68
2022/08/10 12:35:50;;;;;;;1.15;1.15;;;30.30;64.70;;;;;;5008216;28;20197;-68
2022/08/10 12:38:23;;;;;;;1.33;1.23;;;30.40;63.70;;;;;;5008584;28;20232;-68
2022/08/10 12:40:57;;;;;;;2.45;1.30;;;30.40;63.10;;;;;;5008338;28;20225;-68
2022/08/10 12:43:29;;;;;;;4.25;1.52;;;30.50;62.60;;;;;;5008471;28;20574;-68
2022/08/10 12:46:03;;;;;;;1.23;1.13;;;30.60;62.20;;;;;;5007839;28;20289;-68
2022/08/10 12:48:39;;;;;;;3.67;1.45;;;30.60;62.20;;;;;;5008081;28;20220;-68
2022/08/10 12:51:29;;;;;;;1.25;1.23;;;30.70;61.90;;;;;;5002601;28;20205;-68
2022/08/10 12:54:02;;;;;;;1.83;1.38;;;30.70;67.60;;;;;;5007775;28;20694;-68
2022/08/10 12:56:32;;;;;;;1.60;1.33;;;30.70;69.40;;;;;;5006809;28;20189;-68
2022/08/10 12:59:00;;;;;;;3.55;1.00;;;30.80;67.40;;;;;;4991128;28;20303;-68
2022/08/10 13:01:31;;;;;;;11.15;2.15;;;30.90;63.80;;;;;;4986957;28;20198;-68
2022/08/10 13:04:02;;;;;;;2.72;1.45;;;31.00;62.80;;;;;;4986546;28;20621;-68
2022/08/10 13:06:32;;;;;;;1.20;1.10;;;31.00;62.10;;;;;;4986607;28;20190;-68
2022/08/10 13:09:08;;;;;;;2.45;1.70;;;31.00;61.80;;;;;;4986660;28;20210;-68
2022/08/10 13:11:38;;;;;;;8.65;1.73;;;31.10;62.30;;;;;;4986593;28;20206;-68
2022/08/10 13:14:10;;;;;;;1.50;1.40;;;31.30;62.70;;;;;;5002506;28;20202;-68